KOSH/OSH METAR and TAF weather

Enter ICAO airport designator
Station Type Date Time Source
KOSH METAR 2019/04/25 01:53 UTC NOAA

KOSH 250153Z 21010KT 10SM CLR 13/05 A2981 RMK AO2 SLP094 T01330050


Station Type Date Time Source
KOSH Decoded METAR 2019/04/25 01:53 UTC NOAA

WITTMAN REGIONAL AIRPORT, WI, United States (KOSH) 43-58N 88-33W 248M
Apr 24, 2019 - 09:53 PM EDT / 2019.04.25 0153 UTC
Wind: from the SSW (210 degrees) at 12 MPH (10 KT):0
Visibility: 10 mile(s):0
Sky conditions: clear
Temperature: 55.9 F (13.3 C)
Dew Point: 41.0 F (5.0 C)
Relative Humidity: 57%
Pressure (altimeter): 29.81 in. Hg (1009 hPa)
ob: KOSH 250153Z 21010KT 10SM CLR 13/05 A2981 RMK AO2 SLP094 T01330050
cycle: 2

Station Type Date Time Source
KOSH TAF 2018/10/11 06:22 UTC NOAA

TAF KOSH 110520Z 1106/1206 25016G28KT P6SM BKN015
FM111300 27017G28KT P6SM BKN020
FM111400 27018G29KT P6SM BKN015
FM112100 29018G30KT P6SM BKN050
FM120000 29013G24KT P6SM SCT120

Example: see airport list